Route Details

Aircraft Information
Group: North America Fleet
Types: B738, B752, B762, B763
Route Data
Distance: 1038nm
Duration: 3h 10m
Origin METAR: CYYC 160100Z 03009KT 15SM BKN150 25/08 A3005 RMK AC5 SLP171 DENSITY ALT 5500FT
Dest. METAR: KONT 160053Z 24011G17KT 10SM FEW130 FEW200 33/13 A2978 RMK AO2 SLP066 T03330133
Freight Data
(for Aug 16, 2022)
Load Factor:
59%
Manifested Cargo: 73,277lbs
Financial History
Total Freight: 0lbs
Average Load: 0lbs/flt
Fuel Used: 0lbs
Avg. Fuel Used: 0lbs/flt
Fuel Expense: $0
Avg. Fuel Expense: $0
Avg. Fuel Cost: $0/lbs
Total Gross Income: $0
Pilot Pay: $0
Total Expenses: $0
Total Revenue: $0
Average Revenue: $0

Capitol Logistics 448




CYYC
Calgary International Airport
Calgary, CA
KONT
Ontario International Airport
Ontario, US

Activity Log

Date Flight Route Aircraft Duration
No Flights Yet